Finney Heights, Illinois
Current Conditions -  °F | °C
As of 10:35 AM on Monday 26 Jan 2015 (Local Time) from KENL Reporting Station
Broken Clouds Broken Clouds  
Wind Chill: 19°   Ceiling: 1900
Heat Index: 29°   Visibility: 10mi
Dew Point: 22°   Wind: 12mph
Humidity: 75%   Direction: 290°WNW
Pressure: 30.04"   Gusts: NA
Location:  38.5134°N, 89.1673°W
Report Text: KENL 261635Z AUTO 29010KT 10SM BKN019 BKN100 M02/M05 A3004 RMK AO2 T10161055
Loading
Personal Weather Stations






























Interactive Weather Map New forecast layout! Learn more

10-Day Weather Forecast

Advertisements
Track Severe Weather on mobile